Briefing drone pour Claix

Rechercher une autre localisation

Conditions de vol :


Nous sommes le : Jeudi 30 juin 2022
Il est 20:38 UTC (22:38 LT)

Lever de soleil : 03:27 UTC (05:27 LT)
Coucher de soleil : 19:54 UTC (21:54 LT)

Météo

L'essentiel des conditions de vol

VIGILANCE MÉTÉO FRANCE - Isère (38)
Vigilance Jaune : Orages
METAR de LFLS
LFLS 302030Z AUTO 03005KT 350V080 9999 FEW018/// OVC048/// ///TCU 15/11 Q1019

Date d'émission: 30/06/2022
Heure d'émission: 20:30 UTC
Vent: 030° (variable du 350° au 080°) pour 5 KT (9 km/h)
Visibilité horizontale: > 10 km
Plafond :
- Peu de nuages à 1800ft (549m)
- Couvert à 4800ft (1463m)
Température: 15 °C
Point de rosée: 11 °C
Humidité: 77%
Pression (QNH): 1019 hPa
TAF de LFLS
LFLS 301903Z 3019/0115 CNL

Conditions prévues :

Heure d'émission : Bulletin éffectué le 30 à 19:00 UTC
Prévision : Valide du 30 a 19:00 UTC au 01 a 15:00 UTC
Nuages : à 0ft (0 m)
WEBCAM POUR CLAIX

Réglementation

Voler en sécurité

CARTES AERONAUTIQUE 1/500.000
CARTES VAC (LFLS)
SUP AIP




Chargement des AIP...
NOTAM (CLAIX + Terrain à proximité / FIR )




Chargement des NOTAMS...
CONTACT PREFECTURE 38


Avertissement : Les données mises à disposition sont indicatives. Oxygène Drone ne pourra être tenu responsable de dégâts causés aux biens et aux personnes.